Time;durP1;ratioP1;P1;durP2;ratioP2;P2;SDS_P1;SDS_P2;PMS_P1;PMS_P2;Temp;Humidity;BMP_temperature;BMP_pressure;BME280_temperature;BME280_humidity;BME280_pressure;Samples;Min_cycle;Max_cycle;Signal;HPM_P1;HPM_P2
2021/07/08 00:01:46;;;;;;;5.75;3.20;;;;;;;13.62;83.50;101356.19;4971846;28;20022;-82
2021/07/08 00:04:12;;;;;;;4.88;2.67;;;;;;;13.70;83.81;101374.19;4988219;28;20033;-81
2021/07/08 00:06:38;;;;;;;5.60;2.60;;;;;;;13.68;83.37;101363.59;4989926;28;20510;-82
2021/07/08 00:09:06;;;;;;;5.85;2.80;;;;;;;13.71;82.85;101365.91;4986548;28;20048;-82
2021/07/08 00:11:31;;;;;;;4.90;2.90;;;;;;;13.66;82.56;101362.06;4989146;28;20159;-81
2021/07/08 00:13:57;;;;;;;9.13;2.88;;;;;;;13.64;82.45;101368.47;4987094;28;20426;-82
2021/07/08 00:16:22;;;;;;;7.15;3.33;;;;;;;13.65;82.83;101372.03;5002970;28;20030;-82
2021/07/08 00:18:48;;;;;;;7.50;3.30;;;;;;;13.66;82.82;101378.28;4988695;28;20034;-83
2021/07/08 00:21:14;;;;;;;4.05;2.25;;;;;;;13.67;82.57;101375.38;4986948;28;20113;-82
2021/07/08 00:23:39;;;;;;;5.38;2.65;;;;;;;13.66;82.78;101375.59;4985151;28;20102;-82
2021/07/08 00:26:05;;;;;;;8.40;3.17;;;;;;;13.64;82.84;101373.88;5005569;28;20041;-82
2021/07/08 00:28:30;;;;;;;5.65;3.00;;;;;;;13.63;83.02;101364.13;4983599;28;20034;-82
2021/07/08 00:30:56;;;;;;;7.38;3.40;;;;;;;13.73;82.68;101377.34;4984628;28;20034;-82
2021/07/08 00:33:21;;;;;;;7.88;2.53;;;;;;;13.79;82.95;101384.75;4972476;28;20100;-82
2021/07/08 00:35:48;;;;;;;6.50;3.15;;;;;;;13.73;82.76;101373.81;4998647;28;20026;-82
2021/07/08 00:38:13;;;;;;;6.72;3.33;;;;;;;13.70;82.89;101385.00;5003921;28;20037;-81
2021/07/08 00:40:39;;;;;;;5.63;3.03;;;;;;;13.70;83.11;101382.28;4985329;28;20030;-81
2021/07/08 00:43:05;;;;;;;5.82;2.63;;;;;;;13.72;83.34;101391.06;4984144;28;20041;-82
2021/07/08 00:45:31;;;;;;;5.10;2.25;;;;;;;13.68;83.47;101382.50;5003502;28;20113;-82
2021/07/08 00:47:57;;;;;;;4.95;2.45;;;;;;;13.71;82.92;101386.69;4986559;28;20121;-81
2021/07/08 00:50:26;;;;;;;5.03;2.60;;;;;;;13.72;82.92;101386.50;4982753;28;20022;-82
2021/07/08 00:52:52;;;;;;;5.63;2.65;;;;;;;13.71;82.92;101381.28;4973100;28;20080;-82
2021/07/08 00:55:18;;;;;;;5.22;2.63;;;;;;;13.69;82.72;101380.63;4985076;28;20651;-82
2021/07/08 00:57:53;;;;;;;6.30;2.95;;;;;;;13.57;83.14;101374.78;4970545;28;20072;-82
2021/07/08 01:00:25;;;;;;;5.65;2.60;;;;;;;13.63;83.39;101379.50;4988924;28;20449;-82
2021/07/08 01:02:51;;;;;;;5.60;2.58;;;;;;;13.55;83.22;101377.69;4988602;28;20588;-81
2021/07/08 01:05:18;;;;;;;5.53;2.85;;;;;;;13.53;83.56;101374.31;4985365;28;20101;-82
2021/07/08 01:07:44;;;;;;;7.32;2.92;;;;;;;13.54;83.98;101385.97;4972352;28;20079;-82
2021/07/08 01:10:13;;;;;;;5.53;2.72;;;;;;;13.54;84.44;101389.50;4984615;28;20423;-81
2021/07/08 01:12:39;;;;;;;5.35;2.55;;;;;;;13.52;84.09;101388.88;4970232;28;20049;-82
2021/07/08 01:15:06;;;;;;;6.28;2.50;;;;;;;13.49;84.55;101391.06;4984744;28;20446;-81
2021/07/08 01:17:32;;;;;;;9.50;2.80;;;;;;;13.46;84.43;101381.47;4985230;28;20034;-81
2021/07/08 01:19:57;;;;;;;6.60;2.88;;;;;;;13.42;84.03;101380.16;4984951;28;20038;-82
2021/07/08 01:22:23;;;;;;;5.53;2.35;;;;;;;13.35;84.41;101369.19;4983716;28;20026;-82
2021/07/08 01:24:49;;;;;;;7.35;2.45;;;;;;;13.36;84.84;101370.91;4990008;28;20097;-82
2021/07/08 01:27:15;;;;;;;5.50;2.55;;;;;;;13.37;84.84;101363.63;4978182;28;21520;-82
2021/07/08 01:29:40;;;;;;;5.15;2.00;;;;;;;13.42;84.45;101380.16;4989760;28;20084;-81
2021/07/08 01:32:06;;;;;;;7.45;2.40;;;;;;;13.36;84.68;101373.59;4986216;28;20500;-82
2021/07/08 01:34:31;;;;;;;7.05;2.13;;;;;;;13.32;84.71;101363.34;4986414;28;20514;-81
2021/07/08 01:36:57;;;;;;;4.03;1.83;;;;;;;13.45;84.36;101374.38;4971939;28;20498;-83
2021/07/08 01:39:23;;;;;;;5.35;2.13;;;;;;;13.45;84.64;101379.78;4971602;28;20049;-81
2021/07/08 01:41:48;;;;;;;9.15;3.15;;;;;;;13.38;84.94;101381.50;4981770;28;20045;-82
2021/07/08 01:44:14;;;;;;;5.40;2.30;;;;;;;13.37;85.53;101383.38;4988174;28;20092;-81
2021/07/08 01:46:40;;;;;;;5.70;2.22;;;;;;;13.37;85.86;101382.53;4981448;28;20092;-81
2021/07/08 01:49:06;;;;;;;7.20;2.47;;;;;;;13.44;86.05;101385.34;4991535;28;20434;-81
2021/07/08 01:51:33;;;;;;;6.65;2.80;;;;;;;13.41;86.22;101376.59;5011166;28;20068;-81
2021/07/08 01:54:00;;;;;;;5.90;2.13;;;;;;;13.42;86.07;101385.56;4995553;28;20034;-81
2021/07/08 01:56:26;;;;;;;4.63;1.65;;;;;;;13.33;86.45;101392.00;5001130;28;20026;-81
2021/07/08 01:58:52;;;;;;;5.63;1.63;;;;;;;13.26;86.33;101377.50;4985022;28;20524;-81
2021/07/08 02:01:19;;;;;;;4.63;1.60;;;;;;;13.32;86.68;101388.47;5012097;28;20026;-81
2021/07/08 02:03:44;;;;;;;4.63;1.60;;;;;;;13.32;86.64;101387.63;4994345;28;20040;-80
2021/07/08 02:06:11;;;;;;;4.65;1.70;;;;;;;13.34;86.78;101389.16;5000071;28;20022;-81
2021/07/08 02:08:37;;;;;;;5.60;1.60;;;;;;;13.38;86.39;101386.91;5012886;28;20129;-81
2021/07/08 02:11:06;;;;;;;4.55;1.60;;;;;;;13.39;86.44;101389.44;4997686;28;20064;-80
2021/07/08 02:13:33;;;;;;;6.90;1.75;;;;;;;13.35;86.17;101379.19;5013902;28;20029;-81
2021/07/08 02:16:00;;;;;;;3.92;1.60;;;;;;;13.27;86.41;101371.97;4998042;28;20034;-81
2021/07/08 02:18:25;;;;;;;6.13;1.85;;;;;;;13.29;86.44;101377.19;5014275;28;20112;-80
2021/07/08 02:20:51;;;;;;;5.90;2.20;;;;;;;13.33;86.73;101389.31;5013506;28;20026;-81
2021/07/08 02:23:16;;;;;;;4.68;1.60;;;;;;;13.29;86.60;101383.44;5000963;28;20030;-81
2021/07/08 02:25:42;;;;;;;6.63;1.67;;;;;;;13.25;86.99;101390.16;4985392;28;20445;-81
2021/07/08 02:28:08;;;;;;;5.60;1.40;;;;;;;13.14;86.90;101379.78;4990300;28;20018;-82
2021/07/08 02:30:33;;;;;;;7.43;1.90;;;;;;;13.12;87.59;101381.81;4991058;28;20030;-79
2021/07/08 02:32:59;;;;;;;5.18;1.92;;;;;;;13.13;87.74;101388.91;4984977;28;20021;-82
2021/07/08 02:35:26;;;;;;;6.47;2.05;;;;;;;13.15;88.04;101387.72;4992051;28;20026;-82
2021/07/08 02:37:53;;;;;;;4.30;1.38;;;;;;;13.14;88.30;101396.81;4976176;28;20053;-80
2021/07/08 02:40:27;;;;;;;6.85;2.85;;;;;;;13.12;88.13;101398.00;5010995;28;20029;-81
2021/07/08 02:42:53;;;;;;;6.25;1.73;;;;;;;13.07;88.55;101392.28;5008900;28;20033;-82
2021/07/08 02:45:25;;;;;;;8.10;2.22;;;;;;;13.02;88.20;101400.94;5014153;28;20030;-81
2021/07/08 02:47:52;;;;;;;5.20;1.63;;;;;;;12.92;88.21;101384.94;4994057;28;20556;-81
2021/07/08 02:50:18;;;;;;;5.38;1.80;;;;;;;12.79;89.18;101386.53;4994132;28;20932;-79
2021/07/08 02:52:44;;;;;;;3.55;1.35;;;;;;;12.79;89.25;101391.94;4978560;28;20026;-81
2021/07/08 02:55:11;;;;;;;5.22;1.70;;;;;;;12.71;89.79;101380.16;4998363;28;20474;-81
2021/07/08 02:57:40;;;;;;;4.78;1.58;;;;;;;12.64;89.30;101379.16;4979805;28;20038;-81
2021/07/08 03:00:07;;;;;;;4.03;1.52;;;;;;;12.57;90.23;101383.59;4979335;28;20019;-81
2021/07/08 03:02:33;;;;;;;6.03;1.67;;;;;;;12.61;90.18;101386.75;4987420;28;20026;-82
2021/07/08 03:04:58;;;;;;;5.38;1.88;;;;;;;12.67;90.55;101383.34;4991395;28;20080;-81
2021/07/08 03:07:24;;;;;;;4.95;1.70;;;;;;;12.69;90.38;101382.16;4997019;28;20397;-80
2021/07/08 03:09:49;;;;;;;4.15;2.03;;;;;;;12.70;90.25;101386.56;4991113;28;20030;-82
2021/07/08 03:12:14;;;;;;;6.88;1.65;;;;;;;12.68;90.07;101385.06;4980004;28;20433;-79
2021/07/08 03:14:40;;;;;;;5.68;1.30;;;;;;;12.71;90.36;101398.19;4980823;28;20478;-82
2021/07/08 03:17:05;;;;;;;5.35;1.58;;;;;;;12.73;90.01;101396.19;4998782;28;20026;-79
2021/07/08 03:19:31;;;;;;;6.10;1.75;;;;;;;12.67;89.91;101381.50;4978448;28;20034;-81
2021/07/08 03:21:56;;;;;;;6.25;1.65;;;;;;;12.69;89.60;101398.34;4996429;28;20026;-82
2021/07/08 03:24:22;;;;;;;5.22;1.63;;;;;;;12.62;89.88;101396.53;5012027;28;20037;-82
2021/07/08 03:26:47;;;;;;;8.88;1.70;;;;;;;12.66;90.29;101400.56;4982818;28;20021;-81
2021/07/08 03:29:12;;;;;;;5.47;1.85;;;;;;;12.66;90.30;101393.31;4979323;28;20038;-79
2021/07/08 03:31:38;;;;;;;8.77;2.30;;;;;;;12.63;89.84;101393.66;4980049;28;20021;-81
2021/07/08 03:34:04;;;;;;;6.75;1.92;;;;;;;12.64;90.20;101392.63;5015476;28;20032;-80
2021/07/08 03:36:29;;;;;;;5.55;1.55;;;;;;;12.64;90.49;101392.63;4978721;28;20038;-80
2021/07/08 03:38:55;;;;;;;4.38;1.70;;;;;;;12.64;90.34;101389.09;4982082;28;20029;-81
2021/07/08 03:41:20;;;;;;;6.15;1.80;;;;;;;12.68;90.40;101396.69;5000090;28;20030;-81
2021/07/08 03:43:46;;;;;;;8.65;2.20;;;;;;;12.72;90.17;101406.09;4986405;28;20022;-80
2021/07/08 03:46:11;;;;;;;4.60;1.70;;;;;;;12.78;90.36;101410.00;4994007;28;20014;-80
2021/07/08 03:48:37;;;;;;;4.60;1.70;;;;;;;12.78;90.17;101396.50;5002960;28;20094;-81
2021/07/08 03:51:02;;;;;;;6.55;2.00;;;;;;;12.75;89.74;101402.22;5016224;28;20022;-81
2021/07/08 03:53:28;;;;;;;6.65;1.98;;;;;;;12.74;89.61;101409.47;5006615;28;20037;-82
2021/07/08 03:55:54;;;;;;;6.32;1.98;;;;;;;12.69;89.88;101406.47;5022235;28;20017;-80
2021/07/08 03:58:19;;;;;;;6.70;2.33;;;;;;;12.59;89.79;101396.88;5004093;28;20018;-82
2021/07/08 04:00:45;;;;;;;4.75;1.60;;;;;;;12.58;90.13;101401.44;5004630;28;20060;-81
2021/07/08 04:03:13;;;;;;;6.35;2.15;;;;;;;12.52;90.34;101384.09;4997036;28;20427;-80
2021/07/08 04:05:39;;;;;;;6.78;2.20;;;;;;;12.65;90.21;101417.75;5006054;28;20029;-81
2021/07/08 04:08:05;;;;;;;8.80;2.10;;;;;;;12.61;89.85;101411.03;4990377;28;20519;-81
2021/07/08 04:10:31;;;;;;;4.38;2.00;;;;;;;12.53;90.27;101409.22;4988469;28;20018;-81
2021/07/08 04:12:57;;;;;;;6.28;2.13;;;;;;;12.57;90.91;101418.66;4991041;28;20072;-81
2021/07/08 04:15:23;;;;;;;11.02;2.38;;;;;;;12.53;90.84;101411.91;5022421;28;20033;-81
2021/07/08 04:17:49;;;;;;;6.70;2.15;;;;;;;12.54;91.00;101414.44;4990437;28;20026;-81
2021/07/08 04:20:18;;;;;;;7.93;2.20;;;;;;;12.60;90.89;101425.56;5002432;28;20033;-81
2021/07/08 04:22:44;;;;;;;5.15;1.73;;;;;;;12.51;90.67;101412.06;4988002;28;20033;-81
2021/07/08 04:25:10;;;;;;;5.43;1.88;;;;;;;12.49;91.04;101414.13;4993832;28;20025;-81
2021/07/08 04:27:35;;;;;;;5.53;1.75;;;;;;;12.53;91.08;101414.59;5007142;28;20478;-82
2021/07/08 04:30:06;;;;;;;6.28;2.20;;;;;;;12.48;90.96;101408.88;5000485;28;20030;-81
2021/07/08 04:32:32;;;;;;;6.88;2.00;;;;;;;12.45;91.00;101407.38;4998589;28;20089;-81
2021/07/08 04:34:57;;;;;;;6.22;2.00;;;;;;;12.48;90.80;101417.81;4996757;28;20574;-81
2021/07/08 04:37:24;;;;;;;6.13;1.80;;;;;;;12.47;90.98;101409.91;5002350;28;20045;-80
2021/07/08 04:39:49;;;;;;;9.27;2.38;;;;;;;12.41;90.75;101410.56;4988256;28;20034;-81
2021/07/08 04:42:15;;;;;;;6.03;1.80;;;;;;;12.43;90.89;101413.94;4987126;28;20121;-81
2021/07/08 04:44:40;;;;;;;6.50;2.30;;;;;;;12.41;90.99;101413.28;4996727;28;20037;-80
2021/07/08 04:47:05;;;;;;;5.95;2.08;;;;;;;12.43;90.59;101422.88;5020953;28;20022;-80
2021/07/08 04:49:32;;;;;;;7.45;2.30;;;;;;;12.42;90.77;101412.28;5005215;28;20375;-82
2021/07/08 04:51:58;;;;;;;8.23;2.42;;;;;;;12.47;90.63;101416.13;4988212;28;20025;-80
2021/07/08 04:54:23;;;;;;;7.15;2.10;;;;;;;12.51;90.35;101428.25;5012515;28;20091;-81
2021/07/08 04:56:48;;;;;;;7.20;2.15;;;;;;;12.56;90.61;101433.13;4990047;28;20027;-81
2021/07/08 04:59:14;;;;;;;5.78;1.90;;;;;;;12.53;90.72;101414.59;5000056;28;20097;-81
2021/07/08 05:01:39;;;;;;;6.90;2.05;;;;;;;12.44;91.07;101394.06;4997113;28;20384;-80
2021/07/08 05:04:05;;;;;;;8.32;2.13;;;;;;;12.61;90.84;101417.28;5009548;28;20033;-82
2021/07/08 05:06:30;;;;;;;7.78;2.10;;;;;;;12.67;89.87;101424.66;5001252;28;20022;-82
2021/07/08 05:08:56;;;;;;;10.23;2.17;;;;;;;12.70;90.35;101440.53;5002309;28;20025;-81
2021/07/08 05:11:21;;;;;;;7.25;2.30;;;;;;;12.69;90.32;101430.75;5004333;28;20038;-81
2021/07/08 05:13:46;;;;;;;8.98;2.38;;;;;;;12.67;89.70;101426.53;5012353;28;20473;-81
2021/07/08 05:16:12;;;;;;;7.75;2.47;;;;;;;12.71;89.60;101435.97;5005618;28;20108;-80
2021/07/08 05:18:37;;;;;;;7.18;2.10;;;;;;;12.73;90.12;101440.19;5001704;28;20030;-81
2021/07/08 05:21:03;;;;;;;8.05;2.47;;;;;;;12.75;89.75;101451.66;4979459;28;20022;-81
2021/07/08 05:23:31;;;;;;;7.72;2.88;;;;;;;12.68;90.02;101447.97;5005013;28;20028;-81
2021/07/08 05:25:56;;;;;;;9.45;2.88;;;;;;;12.69;89.84;101456.88;5003844;28;20033;-80
2021/07/08 05:28:22;;;;;;;10.02;2.55;;;;;;;12.62;90.41;101437.88;4986272;28;20029;-81
2021/07/08 05:30:47;;;;;;;8.50;2.13;;;;;;;12.63;90.29;101450.31;5002472;28;20026;-80
2021/07/08 05:33:12;;;;;;;7.75;2.38;;;;;;;12.68;90.13;101458.75;4999627;28;20033;-82
2021/07/08 05:35:38;;;;;;;7.68;2.38;;;;;;;12.70;90.10;101461.25;4992325;28;20026;-82
2021/07/08 05:38:05;;;;;;;10.48;2.72;;;;;;;12.75;90.16;101462.44;5003177;28;20029;-82
2021/07/08 05:40:31;;;;;;;9.82;2.15;;;;;;;12.74;90.35;101460.75;4987999;28;20405;-81
2021/07/08 05:42:56;;;;;;;9.38;2.70;;;;;;;12.75;90.26;101458.88;4977325;28;20509;-80
2021/07/08 05:45:22;;;;;;;9.02;2.50;;;;;;;12.72;90.22;101456.53;4978128;28;20025;-81
2021/07/08 05:47:48;;;;;;;9.52;2.63;;;;;;;12.71;90.17;101455.69;4968660;28;20037;-81
2021/07/08 05:50:13;;;;;;;9.57;2.63;;;;;;;12.73;90.13;101455.53;4996685;28;20038;-81
2021/07/08 05:52:39;;;;;;;8.48;2.17;;;;;;;12.74;90.19;101465.31;5007536;28;20022;-81
2021/07/08 05:55:05;;;;;;;7.13;2.17;;;;;;;12.68;90.21;101461.44;4998288;28;20029;-81
2021/07/08 05:57:31;;;;;;;6.95;1.90;;;;;;;12.70;90.12;101470.22;5000926;28;20044;-81
2021/07/08 05:59:56;;;;;;;8.23;2.20;;;;;;;12.67;89.91;101461.59;5000232;28;20040;-80
2021/07/08 06:02:22;;;;;;;8.07;2.47;;;;;;;12.75;89.83;101469.69;4997191;28;20044;-81
2021/07/08 06:04:47;;;;;;;13.00;2.65;;;;;;;12.83;89.55;101479.59;5002409;28;20026;-81
2021/07/08 06:07:13;;;;;;;8.23;2.45;;;;;;;12.88;89.34;101472.66;4988024;28;20034;-81
2021/07/08 06:09:39;;;;;;;6.05;2.33;;;;;;;12.94;89.37;101472.00;4984914;28;20034;-81
2021/07/08 06:12:05;;;;;;;6.90;2.08;;;;;;;12.98;88.96;101472.47;4998748;28;20038;-81
2021/07/08 06:14:30;;;;;;;11.05;2.40;;;;;;;13.07;88.75;101481.38;4986680;28;20029;-81
2021/07/08 06:16:56;;;;;;;9.57;2.45;;;;;;;13.05;88.48;101478.03;5001838;28;20050;-81
2021/07/08 06:19:21;;;;;;;6.03;2.10;;;;;;;13.10;88.47;101475.66;4997664;28;20474;-82
2021/07/08 06:21:48;;;;;;;7.93;2.15;;;;;;;13.17;88.36;101482.84;4991131;28;20486;-79
2021/07/08 06:24:15;;;;;;;7.18;2.08;;;;;;;13.26;88.26;101488.22;4982745;28;20037;-81
2021/07/08 06:26:40;;;;;;;7.20;2.10;;;;;;;13.25;87.84;101470.34;5006828;28;20026;-81
2021/07/08 06:29:05;;;;;;;6.40;1.85;;;;;;;13.36;87.33;101480.78;5004464;28;20052;-80
2021/07/08 06:31:31;;;;;;;11.05;2.85;;;;;;;13.40;87.02;101482.97;4989200;28;20146;-80
2021/07/08 06:33:56;;;;;;;7.38;2.45;;;;;;;13.36;86.58;101475.38;4994818;28;20495;-81
2021/07/08 06:36:22;;;;;;;7.38;2.10;;;;;;;13.49;86.51;101491.03;5005579;28;20045;-80
2021/07/08 06:38:47;;;;;;;8.18;2.15;;;;;;;13.56;86.32;101486.59;5001284;28;20042;-80
2021/07/08 06:41:13;;;;;;;6.07;1.90;;;;;;;13.64;86.80;101491.97;5005408;28;21855;-81
2021/07/08 06:43:38;;;;;;;5.35;1.80;;;;;;;13.65;86.52;101474.72;4995609;28;20010;-81
2021/07/08 06:46:03;;;;;;;6.35;1.88;;;;;;;13.72;86.56;101482.97;5011659;28;20026;-80
2021/07/08 06:48:29;;;;;;;8.20;2.55;;;;;;;13.74;86.24;101479.06;4988405;28;20403;-81
2021/07/08 06:50:54;;;;;;;5.70;1.73;;;;;;;13.80;85.78;101483.75;4989275;28;20947;-81
2021/07/08 06:53:20;;;;;;;8.68;2.20;;;;;;;13.75;85.39;101486.13;4988302;28;20518;-80
2021/07/08 06:55:45;;;;;;;10.80;2.47;;;;;;;13.77;84.41;101499.47;4990317;28;20375;-80
2021/07/08 06:58:11;;;;;;;6.85;2.35;;;;;;;13.69;84.69;101492.25;4998470;28;20026;-81
2021/07/08 07:00:38;;;;;;;4.70;1.65;;;;;;;13.79;84.99;101501.00;5007156;28;20514;-80
2021/07/08 07:03:05;;;;;;;6.45;1.73;;;;;;;13.86;85.19;101503.81;4998122;28;20410;-81
2021/07/08 07:05:31;;;;;;;6.88;1.63;;;;;;;13.91;84.86;101498.69;4989805;28;20030;-80
2021/07/08 07:07:57;;;;;;;4.78;1.75;;;;;;;13.95;84.69;101502.75;4986561;28;20126;-80
2021/07/08 07:10:24;;;;;;;7.28;2.20;;;;;;;13.92;84.77;101496.84;5012163;28;20097;-80
2021/07/08 07:12:51;;;;;;;10.65;2.03;;;;;;;13.90;85.06;101497.03;5016235;28;20375;-81
2021/07/08 07:15:17;;;;;;;4.95;1.30;;;;;;;13.81;84.85;101489.97;5014940;28;20053;-81
2021/07/08 07:17:46;;;;;;;3.85;1.00;;;;;;;13.84;84.87;101500.47;4999110;28;20018;-81
2021/07/08 07:20:14;;;;;;;4.95;1.42;;;;;;;13.85;84.94;101502.13;4993524;28;20022;-80
2021/07/08 07:22:44;;;;;;;3.70;1.50;;;;;;;13.87;84.26;101493.84;4991036;28;20056;-80
2021/07/08 07:25:10;;;;;;;6.18;2.20;;;;;;;13.99;84.41;101506.75;5002401;28;20029;-81
2021/07/08 07:27:35;;;;;;;6.05;1.73;;;;;;;14.12;83.93;101498.03;5000362;28;20120;-81
2021/07/08 07:30:05;;;;;;;4.50;1.40;;;;;;;14.22;83.75;101498.63;5000192;28;20056;-81
2021/07/08 07:32:30;;;;;;;5.80;1.73;;;;;;;14.18;83.63;101493.75;4992240;28;20025;-80
2021/07/08 07:34:56;;;;;;;8.32;1.83;;;;;;;14.14;83.19;101498.72;4989700;28;20064;-81
2021/07/08 07:37:22;;;;;;;6.30;1.40;;;;;;;14.21;83.89;101501.50;4984004;28;20058;-80
2021/07/08 07:39:47;;;;;;;5.53;1.77;;;;;;;14.24;83.66;101496.59;5004763;28;20105;-81
2021/07/08 07:42:13;;;;;;;6.53;1.80;;;;;;;14.32;83.65;101502.97;5001496;28;20037;-81
2021/07/08 07:44:43;;;;;;;4.13;1.60;;;;;;;14.37;83.93;101506.81;4988539;28;20057;-81
2021/07/08 07:47:09;;;;;;;3.58;1.38;;;;;;;14.43;83.85;101516.06;4976233;28;20019;-80
2021/07/08 07:49:35;;;;;;;6.43;1.55;;;;;;;14.40;83.76;101511.84;4987780;28;20080;-82
2021/07/08 07:52:00;;;;;;;5.50;2.08;;;;;;;14.43;83.12;101519.59;4997447;28;20026;-80
2021/07/08 07:54:26;;;;;;;5.28;1.63;;;;;;;14.42;83.54;101517.06;5001523;28;20037;-81
2021/07/08 07:56:51;;;;;;;6.85;2.15;;;;;;;14.42;84.07;101526.03;4982698;28;20026;-81
2021/07/08 07:59:16;;;;;;;5.55;1.77;;;;;;;14.47;83.66;101523.63;4975074;28;20033;-81
2021/07/08 08:01:42;;;;;;;4.25;2.00;;;;;;;14.47;83.95;101523.63;5016901;28;20025;-81
2021/07/08 08:04:07;;;;;;;6.95;1.95;;;;;;;14.54;84.40;101528.34;4993112;28;20025;-80
2021/07/08 08:09:17;;;;;;;4.07;1.60;;;;;;;14.62;83.86;101526.38;4986208;28;20116;-81
2021/07/08 08:11:42;;;;;;;3.88;1.70;;;;;;;14.59;83.14;101529.47;5004785;28;20026;-81
2021/07/08 08:14:08;;;;;;;4.40;1.60;;;;;;;14.60;82.53;101538.41;5000266;28;20018;-81
2021/07/08 08:16:36;;;;;;;4.55;1.60;;;;;;;14.46;82.41;101531.94;5001536;28;20033;-81
2021/07/08 08:19:02;;;;;;;5.78;1.63;;;;;;;14.44;82.25;101526.69;4997492;28;20033;-81
2021/07/08 08:21:27;;;;;;;4.95;1.80;;;;;;;14.49;82.61;101539.66;5009556;28;20022;-81
2021/07/08 08:23:53;;;;;;;3.30;1.63;;;;;;;14.54;82.61;101540.00;4988534;28;20022;-81
2021/07/08 08:26:18;;;;;;;5.25;1.38;;;;;;;14.54;82.95;101531.03;4995214;28;20018;-81
2021/07/08 08:28:44;;;;;;;4.90;1.15;;;;;;;14.61;82.60;101540.13;5004970;28;20126;-81
2021/07/08 08:31:09;;;;;;;3.70;1.17;;;;;;;14.63;81.94;101536.22;5003415;28;20034;-81
2021/07/08 08:33:35;;;;;;;3.58;1.17;;;;;;;14.61;81.59;101521.19;5000611;28;20033;-81
2021/07/08 08:36:00;;;;;;;3.33;1.20;;;;;;;14.75;81.43;101544.72;4988008;28;20026;-81
2021/07/08 08:38:26;;;;;;;4.07;1.02;;;;;;;14.69;81.56;101529.22;4986426;28;20027;-82
2021/07/08 08:40:52;;;;;;;3.65;0.80;;;;;;;14.77;81.32;101534.53;4980115;28;20443;-80
2021/07/08 08:43:18;;;;;;;2.33;0.85;;;;;;;15.06;80.41;101541.03;4996968;28;20109;-80
2021/07/08 08:45:47;;;;;;;2.45;0.70;;;;;;;15.37;79.14;101524.53;4991056;28;20060;-80
2021/07/08 08:48:13;;;;;;;2.00;0.65;;;;;;;15.56;78.20;101529.38;4994775;28;20105;-81
2021/07/08 08:50:47;;;;;;;1.50;0.57;;;;;;;15.97;75.89;101523.41;4993423;28;20069;-81
2021/07/08 08:53:14;;;;;;;2.40;0.85;;;;;;;16.26;74.10;101533.28;5004684;28;20026;-81
2021/07/08 08:55:41;;;;;;;1.50;0.63;;;;;;;16.51;72.84;101523.91;4975979;28;20026;-81
2021/07/08 08:58:09;;;;;;;1.65;0.57;;;;;;;16.79;72.04;101529.38;4980409;28;20060;-81
2021/07/08 09:00:39;;;;;;;1.45;0.50;;;;;;;17.08;69.78;101520.16;4996344;28;20096;-80
2021/07/08 09:03:11;;;;;;;2.05;0.70;;;;;;;17.47;68.66;101521.41;4988863;28;20022;-80
2021/07/08 09:05:38;;;;;;;1.02;0.50;;;;;;;17.60;67.69;101526.91;4987339;28;20121;-79
2021/07/08 09:08:11;;;;;;;3.72;1.20;;;;;;;17.38;66.98;101530.75;4983828;28;20027;-80
2021/07/08 09:10:36;;;;;;;3.83;2.05;;;;;;;16.95;68.37;101526.34;4979257;28;20732;-81
2021/07/08 09:13:02;;;;;;;5.72;2.35;;;;;;;16.46;70.72;101535.38;4988322;28;20057;-81
2021/07/08 09:15:27;;;;;;;6.20;2.92;;;;;;;16.04;72.63;101537.06;5002102;28;20477;-81
2021/07/08 09:17:53;;;;;;;5.68;2.72;;;;;;;15.74;73.62;101536.28;5001967;28;20033;-80
2021/07/08 09:20:20;;;;;;;9.35;3.53;;;;;;;15.52;74.45;101535.38;4990621;28;20022;-80
2021/07/08 09:22:46;;;;;;;7.20;2.95;;;;;;;15.34;75.04;101542.03;4995768;28;20450;-81
2021/07/08 09:25:22;;;;;;;5.53;2.85;;;;;;;15.16;75.87;101549.69;4992911;28;20018;-80
2021/07/08 09:28:12;;;;;;;8.00;2.90;;;;;;;15.07;77.12;101540.81;4993549;28;20084;-80
2021/07/08 09:30:38;;;;;;;6.80;2.80;;;;;;;14.97;77.17;101539.41;5011405;28;20046;-81
2021/07/08 09:33:04;;;;;;;6.32;2.88;;;;;;;14.93;77.47;101539.78;4989801;28;20050;-81
2021/07/08 09:35:33;;;;;;;10.68;2.85;;;;;;;15.02;78.30;101550.53;5004307;28;20030;-80
2021/07/08 09:38:08;;;;;;;7.75;2.70;;;;;;;15.06;78.18;101547.28;5003521;28;20418;-81
2021/07/08 09:40:34;;;;;;;8.07;2.25;;;;;;;15.05;78.40;101547.44;4989364;28;20033;-81
2021/07/08 09:43:00;;;;;;;5.68;2.20;;;;;;;15.15;78.67;101545.31;4993739;28;20033;-81
2021/07/08 09:45:25;;;;;;;7.28;2.63;;;;;;;15.30;78.56;101548.84;4995311;28;20842;-79
2021/07/08 09:47:51;;;;;;;7.38;2.67;;;;;;;15.36;78.33;101545.38;4993060;28;20057;-81
2021/07/08 09:50:22;;;;;;;7.60;2.83;;;;;;;15.46;78.01;101555.94;4983547;28;20031;-81
2021/07/08 09:53:05;;;;;;;7.47;2.50;;;;;;;15.48;77.68;101548.47;5005072;28;20049;-81
2021/07/08 09:58:29;;;;;;;5.63;2.10;;;;;;;15.80;77.84;101559.94;5012088;28;20053;-81
2021/07/08 10:00:55;;;;;;;5.57;2.05;;;;;;;15.89;77.09;101555.25;4994892;28;20014;-81
2021/07/08 10:03:20;;;;;;;5.90;3.03;;;;;;;15.90;75.56;101551.47;4999202;28;20025;-81
2021/07/08 10:05:46;;;;;;;5.60;2.38;;;;;;;15.99;75.48;101558.50;5003345;28;20894;-79
2021/07/08 10:08:11;;;;;;;4.55;1.80;;;;;;;15.94;74.87;101571.78;4978458;28;20026;-82
2021/07/08 10:10:38;;;;;;;9.30;2.78;;;;;;;15.67;74.42;101567.91;5013059;28;20398;-82
2021/07/08 10:13:05;;;;;;;10.52;3.30;;;;;;;15.49;75.92;101569.13;4992467;28;20027;-81
2021/07/08 10:15:34;;;;;;;8.23;3.67;;;;;;;15.42;76.93;101570.06;4971770;28;20444;-82
2021/07/08 10:18:02;;;;;;;6.20;3.08;;;;;;;15.37;78.17;101571.47;4979157;28;20034;-82
2021/07/08 10:20:28;;;;;;;7.72;2.95;;;;;;;15.31;78.26;101574.91;4996193;28;20084;-82
2021/07/08 10:22:53;;;;;;;9.80;3.30;;;;;;;15.39;78.20;101582.94;4995837;28;20026;-82
2021/07/08 10:25:19;;;;;;;12.55;4.10;;;;;;;15.47;77.98;101573.03;4978917;28;20072;-82
2021/07/08 10:27:45;;;;;;;8.30;3.72;;;;;;;15.46;76.46;101574.91;4970507;28;20118;-81
2021/07/08 10:30:11;;;;;;;7.00;3.38;;;;;;;15.44;76.59;101571.56;4992144;28;20030;-81
2021/07/08 10:32:38;;;;;;;10.30;3.97;;;;;;;15.63;76.78;101577.41;4975803;28;20033;-81
2021/07/08 10:35:04;;;;;;;8.32;4.18;;;;;;;15.67;76.64;101579.56;4974984;28;20018;-82
2021/07/08 10:37:33;;;;;;;7.13;3.42;;;;;;;15.80;75.94;101579.75;4974638;28;20042;-82
2021/07/08 10:40:00;;;;;;;8.52;3.40;;;;;;;15.77;74.36;101579.28;4977324;28;20026;-77
2021/07/08 10:42:49;;;;;;;6.97;2.67;;;;;;;15.81;74.33;101580.59;5011693;28;20100;-82
2021/07/08 10:45:41;;;;;;;5.82;2.70;;;;;;;15.87;73.47;101579.00;4978100;28;20033;-81
2021/07/08 10:48:10;;;;;;;6.63;3.47;;;;;;;15.88;73.26;101580.66;4990041;28;20082;-82
2021/07/08 10:50:38;;;;;;;5.57;2.67;;;;;;;16.04;73.91;101575.88;4975312;28;20034;-81
2021/07/08 10:53:31;;;;;;;9.13;3.80;;;;;;;16.12;72.75;101574.06;5011345;28;20018;-81
2021/07/08 10:56:01;;;;;;;9.55;3.70;;;;;;;16.11;72.67;101578.63;5011583;28;20082;-81
2021/07/08 10:58:40;;;;;;;10.35;4.18;;;;;;;16.18;72.89;101574.13;4978045;28;20072;-82
2021/07/08 11:01:09;;;;;;;8.55;3.67;;;;;;;16.30;72.09;101573.59;4993349;28;20030;-81
2021/07/08 11:03:44;;;;;;;7.00;3.78;;;;;;;16.40;71.55;101577.66;4974476;28;20026;-81
2021/07/08 11:06:29;;;;;;;7.57;3.42;;;;;;;16.37;69.84;101563.66;4975607;28;20031;-81
2021/07/08 11:09:04;;;;;;;9.25;3.83;;;;;;;16.36;69.09;101576.41;4996004;28;20081;-80
2021/07/08 11:11:29;;;;;;;7.00;3.00;;;;;;;16.41;69.53;101573.09;4978876;28;20422;-80
2021/07/08 11:14:16;;;;;;;5.70;3.63;;;;;;;16.48;69.25;101571.28;5013638;28;20401;-81
2021/07/08 11:16:45;;;;;;;6.03;2.90;;;;;;;16.44;68.57;101572.72;5015727;28;20030;-80
2021/07/08 11:19:20;;;;;;;6.25;3.08;;;;;;;16.37;69.06;101575.34;5014033;28;20029;-82
2021/07/08 11:21:52;;;;;;;9.20;3.83;;;;;;;16.32;68.50;101576.97;4981553;28;20517;-81
2021/07/08 11:24:43;;;;;;;7.20;3.30;;;;;;;16.29;68.90;101574.66;4985917;28;20030;-81
2021/07/08 11:27:13;;;;;;;7.97;2.97;;;;;;;16.30;69.29;101574.47;5003699;28;20036;-81
2021/07/08 11:29:45;;;;;;;6.88;3.85;;;;;;;16.36;69.57;101579.13;5016634;28;20025;-81